sensor_id;sensor_type;location;lat;lon;timestamp;temperature;humidity
34873;DHT22;21084;51.098;14.506;2022-07-23T00:01:33;16.70;99.90
34873;DHT22;21084;51.098;14.506;2022-07-23T00:03:35;16.60;99.90
34873;DHT22;21084;51.098;14.506;2022-07-23T00:05:37;16.60;99.90
34873;DHT22;21084;51.098;14.506;2022-07-23T00:07:39;16.50;99.90
34873;DHT22;21084;51.098;14.506;2022-07-23T00:09:43;16.40;99.90
34873;DHT22;21084;51.098;14.506;2022-07-23T00:11:44;16.40;99.90
34873;DHT22;21084;51.098;14.506;2022-07-23T00:13:46;16.40;99.90
34873;DHT22;21084;51.098;14.506;2022-07-23T00:15:48;16.40;99.90
34873;DHT22;21084;51.098;14.506;2022-07-23T00:17:50;16.40;99.90
34873;DHT22;21084;51.098;14.506;2022-07-23T00:19:52;16.30;99.90
34873;DHT22;21084;51.098;14.506;2022-07-23T00:21:54;16.30;99.90
34873;DHT22;21084;51.098;14.506;2022-07-23T00:23:56;16.30;99.90
34873;DHT22;21084;51.098;14.506;2022-07-23T00:25:59;16.30;99.90
34873;DHT22;21084;51.098;14.506;2022-07-23T00:28:01;16.30;99.90
34873;DHT22;21084;51.098;14.506;2022-07-23T00:30:04;16.30;99.90
34873;DHT22;21084;51.098;14.506;2022-07-23T00:32:06;16.20;99.90
34873;DHT22;21084;51.098;14.506;2022-07-23T00:34:08;16.20;99.90
34873;DHT22;21084;51.098;14.506;2022-07-23T00:36:10;16.20;99.90
34873;DHT22;21084;51.098;14.506;2022-07-23T00:38:12;16.10;99.90
34873;DHT22;21084;51.098;14.506;2022-07-23T00:40:14;16.10;99.90
34873;DHT22;21084;51.098;14.506;2022-07-23T00:42:17;16.10;99.90
34873;DHT22;21084;51.098;14.506;2022-07-23T00:44:21;16.10;99.90
34873;DHT22;21084;51.098;14.506;2022-07-23T00:46:23;16.00;99.90
34873;DHT22;21084;51.098;14.506;2022-07-23T00:48:25;16.00;99.90
34873;DHT22;21084;51.098;14.506;2022-07-23T00:50:27;15.90;99.90
34873;DHT22;21084;51.098;14.506;2022-07-23T00:52:29;15.90;99.90
34873;DHT22;21084;51.098;14.506;2022-07-23T00:54:31;15.90;99.90
34873;DHT22;21084;51.098;14.506;2022-07-23T00:56:33;15.90;99.90
34873;DHT22;21084;51.098;14.506;2022-07-23T00:58:38;15.90;99.90
34873;DHT22;21084;51.098;14.506;2022-07-23T01:00:40;15.80;99.90
34873;DHT22;21084;51.098;14.506;2022-07-23T01:02:43;15.80;99.90
34873;DHT22;21084;51.098;14.506;2022-07-23T01:04:45;15.70;99.90
34873;DHT22;21084;51.098;14.506;2022-07-23T01:06:47;15.70;99.90
34873;DHT22;21084;51.098;14.506;2022-07-23T01:08:48;15.80;99.90
34873;DHT22;21084;51.098;14.506;2022-07-23T01:10:50;15.80;99.90
34873;DHT22;21084;51.098;14.506;2022-07-23T01:12:53;15.80;99.90
34873;DHT22;21084;51.098;14.506;2022-07-23T01:14:57;15.80;99.90
34873;DHT22;21084;51.098;14.506;2022-07-23T01:16:59;15.80;99.90
34873;DHT22;21084;51.098;14.506;2022-07-23T01:19:01;15.70;99.90
34873;DHT22;21084;51.098;14.506;2022-07-23T01:21:04;15.70;99.90
34873;DHT22;21084;51.098;14.506;2022-07-23T01:23:07;15.70;99.90
34873;DHT22;21084;51.098;14.506;2022-07-23T01:25:09;15.70;99.90
34873;DHT22;21084;51.098;14.506;2022-07-23T01:27:11;15.60;99.90
34873;DHT22;21084;51.098;14.506;2022-07-23T01:29:13;15.60;99.90
34873;DHT22;21084;51.098;14.506;2022-07-23T01:31:15;15.60;99.90
34873;DHT22;21084;51.098;14.506;2022-07-23T01:33:17;15.60;99.90
34873;DHT22;21084;51.098;14.506;2022-07-23T01:35:19;15.60;99.90
34873;DHT22;21084;51.098;14.506;2022-07-23T01:37:21;15.50;99.90
34873;DHT22;21084;51.098;14.506;2022-07-23T01:39:24;15.50;99.90
34873;DHT22;21084;51.098;14.506;2022-07-23T01:41:26;15.50;99.90
34873;DHT22;21084;51.098;14.506;2022-07-23T01:43:28;15.50;99.90
34873;DHT22;21084;51.098;14.506;2022-07-23T01:45:30;15.50;99.90
34873;DHT22;21084;51.098;14.506;2022-07-23T01:47:32;15.40;99.90
34873;DHT22;21084;51.098;14.506;2022-07-23T01:49:34;15.40;99.90
34873;DHT22;21084;51.098;14.506;2022-07-23T01:51:36;15.40;99.90
34873;DHT22;21084;51.098;14.506;2022-07-23T01:53:38;15.40;99.90
34873;DHT22;21084;51.098;14.506;2022-07-23T01:55:41;15.40;99.90
34873;DHT22;21084;51.098;14.506;2022-07-23T01:57:43;15.30;99.90
34873;DHT22;21084;51.098;14.506;2022-07-23T01:59:45;15.30;99.90
34873;DHT22;21084;51.098;14.506;2022-07-23T02:01:47;15.30;99.90
34873;DHT22;21084;51.098;14.506;2022-07-23T02:03:49;15.30;99.90
34873;DHT22;21084;51.098;14.506;2022-07-23T02:05:51;15.20;99.90
34873;DHT22;21084;51.098;14.506;2022-07-23T02:07:53;15.20;99.90
34873;DHT22;21084;51.098;14.506;2022-07-23T02:09:55;15.20;99.90
34873;DHT22;21084;51.098;14.506;2022-07-23T02:11:58;15.20;99.90
34873;DHT22;21084;51.098;14.506;2022-07-23T02:14:00;15.20;99.90
34873;DHT22;21084;51.098;14.506;2022-07-23T02:16:02;15.20;99.90
34873;DHT22;21084;51.098;14.506;2022-07-23T02:18:04;15.20;99.90
34873;DHT22;21084;51.098;14.506;2022-07-23T02:20:07;15.10;99.90
34873;DHT22;21084;51.098;14.506;2022-07-23T02:22:09;15.10;99.90
34873;DHT22;21084;51.098;14.506;2022-07-23T02:24:11;15.10;99.90
34873;DHT22;21084;51.098;14.506;2022-07-23T02:26:13;15.00;99.90
34873;DHT22;21084;51.098;14.506;2022-07-23T02:28:22;15.00;99.90
34873;DHT22;21084;51.098;14.506;2022-07-23T02:30:24;15.00;99.90
34873;DHT22;21084;51.098;14.506;2022-07-23T02:32:26;15.00;99.90
34873;DHT22;21084;51.098;14.506;2022-07-23T02:34:28;14.90;99.90
34873;DHT22;21084;51.098;14.506;2022-07-23T02:36:30;14.90;99.90
34873;DHT22;21084;51.098;14.506;2022-07-23T02:38:32;14.90;99.90
34873;DHT22;21084;51.098;14.506;2022-07-23T02:40:34;14.90;99.90
34873;DHT22;21084;51.098;14.506;2022-07-23T02:42:36;15.00;99.90
34873;DHT22;21084;51.098;14.506;2022-07-23T02:44:39;15.00;99.90
34873;DHT22;21084;51.098;14.506;2022-07-23T02:46:40;15.00;99.90
34873;DHT22;21084;51.098;14.506;2022-07-23T02:48:42;15.00;99.90
34873;DHT22;21084;51.098;14.506;2022-07-23T02:50:44;15.00;99.90
34873;DHT22;21084;51.098;14.506;2022-07-23T02:52:46;15.00;99.90
34873;DHT22;21084;51.098;14.506;2022-07-23T02:54:48;15.00;99.90
34873;DHT22;21084;51.098;14.506;2022-07-23T02:56:50;15.00;99.90
34873;DHT22;21084;51.098;14.506;2022-07-23T02:58:52;15.10;99.90
34873;DHT22;21084;51.098;14.506;2022-07-23T03:00:55;15.10;99.90
34873;DHT22;21084;51.098;14.506;2022-07-23T03:02:57;15.10;99.90
34873;DHT22;21084;51.098;14.506;2022-07-23T03:04:59;15.00;99.90
34873;DHT22;21084;51.098;14.506;2022-07-23T03:07:01;15.10;99.90
34873;DHT22;21084;51.098;14.506;2022-07-23T03:09:03;15.10;99.90
34873;DHT22;21084;51.098;14.506;2022-07-23T03:11:05;15.00;99.90
34873;DHT22;21084;51.098;14.506;2022-07-23T03:13:07;15.00;99.90
34873;DHT22;21084;51.098;14.506;2022-07-23T03:15:09;15.00;99.90
34873;DHT22;21084;51.098;14.506;2022-07-23T03:17:13;15.00;99.90
34873;DHT22;21084;51.098;14.506;2022-07-23T03:19:15;15.00;99.90
34873;DHT22;21084;51.098;14.506;2022-07-23T03:21:16;15.00;99.90
34873;DHT22;21084;51.098;14.506;2022-07-23T03:23:18;15.00;99.90
34873;DHT22;21084;51.098;14.506;2022-07-23T03:25:20;15.10;99.90
34873;DHT22;21084;51.098;14.506;2022-07-23T03:27:23;15.00;99.90
34873;DHT22;21084;51.098;14.506;2022-07-23T03:29:24;15.10;99.90
34873;DHT22;21084;51.098;14.506;2022-07-23T03:31:26;15.20;99.90
34873;DHT22;21084;51.098;14.506;2022-07-23T03:33:30;15.20;99.90
34873;DHT22;21084;51.098;14.506;2022-07-23T03:35:32;15.30;99.90
34873;DHT22;21084;51.098;14.506;2022-07-23T03:37:33;15.40;99.90
34873;DHT22;21084;51.098;14.506;2022-07-23T03:39:35;15.50;99.90
34873;DHT22;21084;51.098;14.506;2022-07-23T03:41:37;15.60;99.90
34873;DHT22;21084;51.098;14.506;2022-07-23T03:43:39;15.70;99.90
34873;DHT22;21084;51.098;14.506;2022-07-23T03:45:41;15.70;99.90
34873;DHT22;21084;51.098;14.506;2022-07-23T03:47:43;15.80;99.90
34873;DHT22;21084;51.098;14.506;2022-07-23T03:49:46;15.90;99.90
34873;DHT22;21084;51.098;14.506;2022-07-23T03:51:48;15.90;99.90
34873;DHT22;21084;51.098;14.506;2022-07-23T03:53:50;16.00;99.90
34873;DHT22;21084;51.098;14.506;2022-07-23T03:55:51;16.00;99.90
34873;DHT22;21084;51.098;14.506;2022-07-23T03:57:53;16.10;99.90
34873;DHT22;21084;51.098;14.506;2022-07-23T03:59:55;16.20;99.90
34873;DHT22;21084;51.098;14.506;2022-07-23T04:01:57;16.20;99.90
34873;DHT22;21084;51.098;14.506;2022-07-23T04:03:59;16.30;99.90
34873;DHT22;21084;51.098;14.506;2022-07-23T04:06:03;16.30;99.90
34873;DHT22;21084;51.098;14.506;2022-07-23T04:08:05;16.40;99.90
34873;DHT22;21084;51.098;14.506;2022-07-23T04:10:07;16.40;99.90
34873;DHT22;21084;51.098;14.506;2022-07-23T04:12:09;16.40;99.90
34873;DHT22;21084;51.098;14.506;2022-07-23T04:14:11;16.40;99.90
34873;DHT22;21084;51.098;14.506;2022-07-23T04:16:13;16.40;99.90
34873;DHT22;21084;51.098;14.506;2022-07-23T04:18:15;16.40;99.90
34873;DHT22;21084;51.098;14.506;2022-07-23T04:20:17;16.50;99.90
34873;DHT22;21084;51.098;14.506;2022-07-23T04:22:20;16.50;99.90
34873;DHT22;21084;51.098;14.506;2022-07-23T04:24:22;16.50;99.90
34873;DHT22;21084;51.098;14.506;2022-07-23T04:26:24;16.60;99.90
34873;DHT22;21084;51.098;14.506;2022-07-23T04:28:26;16.70;99.90
34873;DHT22;21084;51.098;14.506;2022-07-23T04:30:28;16.70;99.90
34873;DHT22;21084;51.098;14.506;2022-07-23T04:32:30;16.80;99.90
34873;DHT22;21084;51.098;14.506;2022-07-23T04:34:32;16.80;99.90
34873;DHT22;21084;51.098;14.506;2022-07-23T04:36:33;17.00;99.90
34873;DHT22;21084;51.098;14.506;2022-07-23T04:38:37;17.10;99.90
34873;DHT22;21084;51.098;14.506;2022-07-23T04:40:38;17.20;99.90
34873;DHT22;21084;51.098;14.506;2022-07-23T04:42:40;17.30;99.90
34873;DHT22;21084;51.098;14.506;2022-07-23T04:44:42;17.40;99.90
34873;DHT22;21084;51.098;14.506;2022-07-23T04:46:44;17.30;99.90
34873;DHT22;21084;51.098;14.506;2022-07-23T04:48:46;17.20;99.90
34873;DHT22;21084;51.098;14.506;2022-07-23T04:50:48;17.10;99.90
34873;DHT22;21084;51.098;14.506;2022-07-23T04:52:50;17.10;99.90
34873;DHT22;21084;51.098;14.506;2022-07-23T04:54:53;17.20;99.90
34873;DHT22;21084;51.098;14.506;2022-07-23T04:56:55;17.10;99.90
34873;DHT22;21084;51.098;14.506;2022-07-23T04:58:56;17.00;99.90
34873;DHT22;21084;51.098;14.506;2022-07-23T05:00:59;17.10;99.90
34873;DHT22;21084;51.098;14.506;2022-07-23T05:03:01;17.10;99.90
34873;DHT22;21084;51.098;14.506;2022-07-23T05:05:03;17.30;99.90
34873;DHT22;21084;51.098;14.506;2022-07-23T05:07:05;17.50;99.90
34873;DHT22;21084;51.098;14.506;2022-07-23T05:09:07;17.60;99.90
34873;DHT22;21084;51.098;14.506;2022-07-23T05:11:10;17.80;99.90
34873;DHT22;21084;51.098;14.506;2022-07-23T05:13:14;17.90;99.90
34873;DHT22;21084;51.098;14.506;2022-07-23T05:15:16;18.00;99.90
34873;DHT22;21084;51.098;14.506;2022-07-23T05:17:18;18.10;99.90
34873;DHT22;21084;51.098;14.506;2022-07-23T05:19:20;18.10;99.90
34873;DHT22;21084;51.098;14.506;2022-07-23T05:21:26;17.90;99.90
34873;DHT22;21084;51.098;14.506;2022-07-23T05:23:27;17.80;99.90
34873;DHT22;21084;51.098;14.506;2022-07-23T05:25:29;17.70;99.90
34873;DHT22;21084;51.098;14.506;2022-07-23T05:27:33;17.90;99.90
34873;DHT22;21084;51.098;14.506;2022-07-23T05:29:35;18.10;99.90
34873;DHT22;21084;51.098;14.506;2022-07-23T05:31:36;18.10;99.90
34873;DHT22;21084;51.098;14.506;2022-07-23T05:33:38;18.00;99.90
34873;DHT22;21084;51.098;14.506;2022-07-23T05:35:40;18.10;99.90
34873;DHT22;21084;51.098;14.506;2022-07-23T05:37:42;18.20;99.90
34873;DHT22;21084;51.098;14.506;2022-07-23T05:39:44;18.50;99.90
34873;DHT22;21084;51.098;14.506;2022-07-23T05:41:46;18.70;99.90
34873;DHT22;21084;51.098;14.506;2022-07-23T05:43:49;18.80;99.90
34873;DHT22;21084;51.098;14.506;2022-07-23T05:45:51;18.70;99.90
34873;DHT22;21084;51.098;14.506;2022-07-23T05:47:53;18.70;99.90
34873;DHT22;21084;51.098;14.506;2022-07-23T05:49:54;18.90;99.90
34873;DHT22;21084;51.098;14.506;2022-07-23T05:52:04;18.70;99.90
34873;DHT22;21084;51.098;14.506;2022-07-23T05:54:06;19.00;99.90
34873;DHT22;21084;51.098;14.506;2022-07-23T05:56:08;18.80;99.90
34873;DHT22;21084;51.098;14.506;2022-07-23T05:58:10;18.80;99.90
34873;DHT22;21084;51.098;14.506;2022-07-23T06:00:14;18.90;99.90
34873;DHT22;21084;51.098;14.506;2022-07-23T06:02:16;18.90;99.90
34873;DHT22;21084;51.098;14.506;2022-07-23T06:04:17;18.90;99.90
34873;DHT22;21084;51.098;14.506;2022-07-23T06:06:19;18.90;99.90
34873;DHT22;21084;51.098;14.506;2022-07-23T06:08:21;18.90;99.90
34873;DHT22;21084;51.098;14.506;2022-07-23T06:10:23;18.80;99.90
34873;DHT22;21084;51.098;14.506;2022-07-23T06:12:25;18.60;99.90
34873;DHT22;21084;51.098;14.506;2022-07-23T06:14:27;18.80;99.90
34873;DHT22;21084;51.098;14.506;2022-07-23T06:16:30;18.60;99.90
34873;DHT22;21084;51.098;14.506;2022-07-23T06:18:32;18.70;99.90
34873;DHT22;21084;51.098;14.506;2022-07-23T06:20:34;18.70;99.90
34873;DHT22;21084;51.098;14.506;2022-07-23T06:22:36;18.80;99.90
34873;DHT22;21084;51.098;14.506;2022-07-23T06:24:38;19.00;99.90
34873;DHT22;21084;51.098;14.506;2022-07-23T06:26:39;19.10;99.90
34873;DHT22;21084;51.098;14.506;2022-07-23T06:28:41;19.10;99.90
34873;DHT22;21084;51.098;14.506;2022-07-23T06:30:43;19.20;99.90
34873;DHT22;21084;51.098;14.506;2022-07-23T06:32:47;19.10;99.90
34873;DHT22;21084;51.098;14.506;2022-07-23T06:34:49;19.10;99.90
34873;DHT22;21084;51.098;14.506;2022-07-23T06:36:51;19.20;99.90
34873;DHT22;21084;51.098;14.506;2022-07-23T06:38:52;19.40;99.90
34873;DHT22;21084;51.098;14.506;2022-07-23T06:40:55;19.20;99.90
34873;DHT22;21084;51.098;14.506;2022-07-23T06:42:57;19.00;99.90
34873;DHT22;21084;51.098;14.506;2022-07-23T06:44:58;19.00;99.90
34873;DHT22;21084;51.098;14.506;2022-07-23T06:47:00;18.90;99.90
34873;DHT22;21084;51.098;14.506;2022-07-23T06:49:03;18.80;99.90
34873;DHT22;21084;51.098;14.506;2022-07-23T06:51:06;18.80;99.90
34873;DHT22;21084;51.098;14.506;2022-07-23T06:53:08;18.90;99.90
34873;DHT22;21084;51.098;14.506;2022-07-23T06:55:10;19.00;99.90
34873;DHT22;21084;51.098;14.506;2022-07-23T06:57:12;18.90;99.90
34873;DHT22;21084;51.098;14.506;2022-07-23T06:59:14;18.90;99.90
34873;DHT22;21084;51.098;14.506;2022-07-23T07:01:15;18.80;99.90
34873;DHT22;21084;51.098;14.506;2022-07-23T07:03:18;18.90;99.90
34873;DHT22;21084;51.098;14.506;2022-07-23T07:05:21;18.90;99.90
34873;DHT22;21084;51.098;14.506;2022-07-23T07:07:23;18.90;99.90
34873;DHT22;21084;51.098;14.506;2022-07-23T07:09:25;19.10;99.90
34873;DHT22;21084;51.098;14.506;2022-07-23T07:11:27;19.10;99.90
34873;DHT22;21084;51.098;14.506;2022-07-23T07:13:29;19.10;99.90
34873;DHT22;21084;51.098;14.506;2022-07-23T07:15:31;19.10;99.90
34873;DHT22;21084;51.098;14.506;2022-07-23T07:17:32;19.20;99.90
34873;DHT22;21084;51.098;14.506;2022-07-23T07:19:34;19.10;99.90
34873;DHT22;21084;51.098;14.506;2022-07-23T07:21:37;19.10;99.90
34873;DHT22;21084;51.098;14.506;2022-07-23T07:23:39;19.00;99.90
34873;DHT22;21084;51.098;14.506;2022-07-23T07:25:41;19.00;99.90
34873;DHT22;21084;51.098;14.506;2022-07-23T07:27:43;19.10;99.90
34873;DHT22;21084;51.098;14.506;2022-07-23T07:29:45;19.30;99.90
34873;DHT22;21084;51.098;14.506;2022-07-23T07:31:47;19.50;99.90
34873;DHT22;21084;51.098;14.506;2022-07-23T07:33:49;19.60;99.90
34873;DHT22;21084;51.098;14.506;2022-07-23T07:35:50;19.80;99.90
34873;DHT22;21084;51.098;14.506;2022-07-23T07:37:54;20.20;99.90
34873;DHT22;21084;51.098;14.506;2022-07-23T07:39:55;20.10;99.90
34873;DHT22;21084;51.098;14.506;2022-07-23T07:41:57;20.20;99.90
34873;DHT22;21084;51.098;14.506;2022-07-23T07:43:59;20.30;99.90
34873;DHT22;21084;51.098;14.506;2022-07-23T07:46:02;20.60;99.90
34873;DHT22;21084;51.098;14.506;2022-07-23T07:48:05;21.00;99.90
34873;DHT22;21084;51.098;14.506;2022-07-23T07:50:07;21.50;99.90
34873;DHT22;21084;51.098;14.506;2022-07-23T07:52:10;21.30;99.90
34873;DHT22;21084;51.098;14.506;2022-07-23T07:54:14;21.30;99.90
34873;DHT22;21084;51.098;14.506;2022-07-23T07:56:17;21.40;99.90
34873;DHT22;21084;51.098;14.506;2022-07-23T07:58:19;21.20;99.90
34873;DHT22;21084;51.098;14.506;2022-07-23T08:00:21;20.90;99.90
34873;DHT22;21084;51.098;14.506;2022-07-23T08:02:23;21.00;99.90
34873;DHT22;21084;51.098;14.506;2022-07-23T08:04:25;21.20;99.90
34873;DHT22;21084;51.098;14.506;2022-07-23T08:06:27;21.20;99.90
34873;DHT22;21084;51.098;14.506;2022-07-23T08:08:29;21.50;99.90
34873;DHT22;21084;51.098;14.506;2022-07-23T08:10:32;21.40;99.90
34873;DHT22;21084;51.098;14.506;2022-07-23T08:12:39;21.90;99.90
34873;DHT22;21084;51.098;14.506;2022-07-23T08:14:40;22.00;99.90
34873;DHT22;21084;51.098;14.506;2022-07-23T08:16:42;21.70;99.90
34873;DHT22;21084;51.098;14.506;2022-07-23T08:19:04;21.70;99.90
34873;DHT22;21084;51.098;14.506;2022-07-23T08:21:06;22.00;99.90
34873;DHT22;21084;51.098;14.506;2022-07-23T08:23:08;21.80;99.90
34873;DHT22;21084;51.098;14.506;2022-07-23T08:25:10;21.60;99.90
34873;DHT22;21084;51.098;14.506;2022-07-23T08:27:13;21.90;99.90
34873;DHT22;21084;51.098;14.506;2022-07-23T08:29:15;22.10;99.90
34873;DHT22;21084;51.098;14.506;2022-07-23T08:31:17;22.30;99.90
34873;DHT22;21084;51.098;14.506;2022-07-23T08:33:19;22.60;99.90
34873;DHT22;21084;51.098;14.506;2022-07-23T08:35:38;24.00;99.90
34873;DHT22;21084;51.098;14.506;2022-07-23T08:37:40;23.80;99.90
34873;DHT22;21084;51.098;14.506;2022-07-23T08:39:42;22.90;99.90
34873;DHT22;21084;51.098;14.506;2022-07-23T08:41:44;23.10;99.90
34873;DHT22;21084;51.098;14.506;2022-07-23T08:43:47;23.50;99.90
34873;DHT22;21084;51.098;14.506;2022-07-23T08:45:52;23.50;99.90
34873;DHT22;21084;51.098;14.506;2022-07-23T08:47:56;24.00;99.90
34873;DHT22;21084;51.098;14.506;2022-07-23T08:49:58;23.60;99.90
34873;DHT22;21084;51.098;14.506;2022-07-23T08:52:03;23.80;99.90
34873;DHT22;21084;51.098;14.506;2022-07-23T08:54:05;24.00;99.90
34873;DHT22;21084;51.098;14.506;2022-07-23T08:56:07;23.80;99.90
34873;DHT22;21084;51.098;14.506;2022-07-23T08:58:10;24.00;99.90
34873;DHT22;21084;51.098;14.506;2022-07-23T09:00:16;24.60;99.90
34873;DHT22;21084;51.098;14.506;2022-07-23T09:02:18;25.60;99.90
34873;DHT22;21084;51.098;14.506;2022-07-23T09:04:20;26.00;99.90
34873;DHT22;21084;51.098;14.506;2022-07-23T09:06:27;26.00;99.90
34873;DHT22;21084;51.098;14.506;2022-07-23T09:08:35;25.70;99.90
34873;DHT22;21084;51.098;14.506;2022-07-23T09:10:49;25.40;99.90
34873;DHT22;21084;51.098;14.506;2022-07-23T09:12:51;26.00;99.90
34873;DHT22;21084;51.098;14.506;2022-07-23T09:14:53;26.60;99.90
34873;DHT22;21084;51.098;14.506;2022-07-23T09:16:56;28.10;99.90
34873;DHT22;21084;51.098;14.506;2022-07-23T09:19:00;27.90;99.90
34873;DHT22;21084;51.098;14.506;2022-07-23T09:21:13;26.60;99.90
34873;DHT22;21084;51.098;14.506;2022-07-23T09:23:15;26.00;99.90
34873;DHT22;21084;51.098;14.506;2022-07-23T09:25:18;26.10;99.90
34873;DHT22;21084;51.098;14.506;2022-07-23T09:27:20;26.20;99.90
34873;DHT22;21084;51.098;14.506;2022-07-23T09:29:23;25.80;99.90
34873;DHT22;21084;51.098;14.506;2022-07-23T09:31:31;25.70;99.90
34873;DHT22;21084;51.098;14.506;2022-07-23T09:33:35;25.90;99.90
34873;DHT22;21084;51.098;14.506;2022-07-23T09:35:45;26.00;99.90
34873;DHT22;21084;51.098;14.506;2022-07-23T09:38:01;25.90;99.90
34873;DHT22;21084;51.098;14.506;2022-07-23T09:40:07;25.30;99.90
34873;DHT22;21084;51.098;14.506;2022-07-23T09:42:13;25.30;99.90
34873;DHT22;21084;51.098;14.506;2022-07-23T09:44:18;24.90;99.90
34873;DHT22;21084;51.098;14.506;2022-07-23T09:46:27;24.50;99.90
34873;DHT22;21084;51.098;14.506;2022-07-23T09:48:29;25.40;99.90
34873;DHT22;21084;51.098;14.506;2022-07-23T09:50:33;24.90;99.90
34873;DHT22;21084;51.098;14.506;2022-07-23T09:52:36;24.70;99.90
34873;DHT22;21084;51.098;14.506;2022-07-23T09:54:39;25.20;99.90
34873;DHT22;21084;51.098;14.506;2022-07-23T09:56:42;25.90;99.90
34873;DHT22;21084;51.098;14.506;2022-07-23T09:58:44;26.20;99.90
34873;DHT22;21084;51.098;14.506;2022-07-23T10:00:47;26.50;99.90
34873;DHT22;21084;51.098;14.506;2022-07-23T10:02:50;25.80;99.90
34873;DHT22;21084;51.098;14.506;2022-07-23T10:04:54;26.30;99.90
34873;DHT22;21084;51.098;14.506;2022-07-23T10:06:59;26.60;99.90
34873;DHT22;21084;51.098;14.506;2022-07-23T10:09:02;26.20;99.90
34873;DHT22;21084;51.098;14.506;2022-07-23T10:11:04;25.60;99.90
34873;DHT22;21084;51.098;14.506;2022-07-23T10:13:06;25.60;99.90
34873;DHT22;21084;51.098;14.506;2022-07-23T10:15:08;25.50;99.90
34873;DHT22;21084;51.098;14.506;2022-07-23T10:17:11;25.60;99.90
34873;DHT22;21084;51.098;14.506;2022-07-23T10:19:13;25.60;99.90
34873;DHT22;21084;51.098;14.506;2022-07-23T10:21:25;25.00;99.90
34873;DHT22;21084;51.098;14.506;2022-07-23T10:23:35;25.10;99.90
34873;DHT22;21084;51.098;14.506;2022-07-23T10:25:41;24.80;99.90
34873;DHT22;21084;51.098;14.506;2022-07-23T10:27:58;24.20;99.90
34873;DHT22;21084;51.098;14.506;2022-07-23T10:30:06;24.00;99.90
34873;DHT22;21084;51.098;14.506;2022-07-23T10:32:19;23.70;99.90
34873;DHT22;21084;51.098;14.506;2022-07-23T10:34:29;23.40;99.90
34873;DHT22;21084;51.098;14.506;2022-07-23T10:36:42;23.20;99.90
34873;DHT22;21084;51.098;14.506;2022-07-23T10:38:53;23.20;99.90
34873;DHT22;21084;51.098;14.506;2022-07-23T10:40:58;23.10;99.90
34873;DHT22;21084;51.098;14.506;2022-07-23T10:43:00;23.20;99.90
34873;DHT22;21084;51.098;14.506;2022-07-23T10:45:22;23.40;99.90
34873;DHT22;21084;51.098;14.506;2022-07-23T10:47:27;23.20;99.90
34873;DHT22;21084;51.098;14.506;2022-07-23T10:49:30;23.30;99.90
34873;DHT22;21084;51.098;14.506;2022-07-23T10:51:33;23.50;99.90
34873;DHT22;21084;51.098;14.506;2022-07-23T10:53:56;23.90;99.90
34873;DHT22;21084;51.098;14.506;2022-07-23T10:55:58;23.70;99.90
34873;DHT22;21084;51.098;14.506;2022-07-23T10:58:01;24.00;99.90
34873;DHT22;21084;51.098;14.506;2022-07-23T11:00:18;24.40;99.90
34873;DHT22;21084;51.098;14.506;2022-07-23T11:02:22;24.90;99.90
34873;DHT22;21084;51.098;14.506;2022-07-23T11:04:48;25.40;99.90
34873;DHT22;21084;51.098;14.506;2022-07-23T11:07:08;24.90;99.90
34873;DHT22;21084;51.098;14.506;2022-07-23T11:09:27;25.10;99.90
34873;DHT22;21084;51.098;14.506;2022-07-23T11:11:29;25.70;99.90
34873;DHT22;21084;51.098;14.506;2022-07-23T11:13:44;25.90;99.90
34873;DHT22;21084;51.098;14.506;2022-07-23T11:18:59;27.10;99.90
34873;DHT22;21084;51.098;14.506;2022-07-23T11:24:05;26.60;99.90
34873;DHT22;21084;51.098;14.506;2022-07-23T11:26:08;26.70;99.90
34873;DHT22;21084;51.098;14.506;2022-07-23T11:28:19;27.80;99.90
34873;DHT22;21084;51.098;14.506;2022-07-23T11:30:39;28.90;99.90
34873;DHT22;21084;51.098;14.506;2022-07-23T11:32:41;28.90;99.90
34873;DHT22;21084;51.098;14.506;2022-07-23T11:34:44;29.20;99.90
34873;DHT22;21084;51.098;14.506;2022-07-23T11:36:50;28.10;99.90
34873;DHT22;21084;51.098;14.506;2022-07-23T11:38:52;28.50;99.90
34873;DHT22;21084;51.098;14.506;2022-07-23T11:40:56;28.50;99.90
34873;DHT22;21084;51.098;14.506;2022-07-23T11:43:00;28.60;99.90
34873;DHT22;21084;51.098;14.506;2022-07-23T11:45:05;28.60;99.90
34873;DHT22;21084;51.098;14.506;2022-07-23T11:47:08;29.30;99.90
34873;DHT22;21084;51.098;14.506;2022-07-23T11:49:11;29.20;99.90
34873;DHT22;21084;51.098;14.506;2022-07-23T11:51:25;28.40;99.90
34873;DHT22;21084;51.098;14.506;2022-07-23T11:53:28;30.00;99.90
34873;DHT22;21084;51.098;14.506;2022-07-23T11:55:30;29.60;99.90
34873;DHT22;21084;51.098;14.506;2022-07-23T11:57:35;29.50;99.90
34873;DHT22;21084;51.098;14.506;2022-07-23T11:59:38;29.30;99.90
34873;DHT22;21084;51.098;14.506;2022-07-23T12:01:56;28.90;99.90
34873;DHT22;21084;51.098;14.506;2022-07-23T12:03:57;28.40;99.90
34873;DHT22;21084;51.098;14.506;2022-07-23T12:06:00;28.80;99.90
34873;DHT22;21084;51.098;14.506;2022-07-23T12:08:03;28.20;99.90
34873;DHT22;21084;51.098;14.506;2022-07-23T12:10:11;28.30;99.90
34873;DHT22;21084;51.098;14.506;2022-07-23T12:12:13;27.30;99.90
34873;DHT22;21084;51.098;14.506;2022-07-23T12:14:16;27.00;99.90
34873;DHT22;21084;51.098;14.506;2022-07-23T12:16:18;27.20;99.90
34873;DHT22;21084;51.098;14.506;2022-07-23T12:18:21;27.10;99.90
34873;DHT22;21084;51.098;14.506;2022-07-23T12:20:29;27.70;99.90
34873;DHT22;21084;51.098;14.506;2022-07-23T12:22:36;27.80;99.90
34873;DHT22;21084;51.098;14.506;2022-07-23T12:24:55;28.60;99.90
34873;DHT22;21084;51.098;14.506;2022-07-23T12:27:19;28.20;99.90
34873;DHT22;21084;51.098;14.506;2022-07-23T12:29:34;28.50;99.90
34873;DHT22;21084;51.098;14.506;2022-07-23T12:31:36;28.50;99.90
34873;DHT22;21084;51.098;14.506;2022-07-23T12:33:39;28.70;99.90
34873;DHT22;21084;51.098;14.506;2022-07-23T12:35:42;28.50;99.90
34873;DHT22;21084;51.098;14.506;2022-07-23T12:37:47;28.20;99.90
34873;DHT22;21084;51.098;14.506;2022-07-23T12:39:49;29.40;99.90
34873;DHT22;21084;51.098;14.506;2022-07-23T12:41:51;29.70;98.90
34873;DHT22;21084;51.098;14.506;2022-07-23T12:43:53;29.80;98.20
34873;DHT22;21084;51.098;14.506;2022-07-23T12:46:03;30.40;97.10
34873;DHT22;21084;51.098;14.506;2022-07-23T12:48:05;30.20;96.20
34873;DHT22;21084;51.098;14.506;2022-07-23T12:50:07;30.20;96.40
34873;DHT22;21084;51.098;14.506;2022-07-23T12:52:15;31.30;94.20
34873;DHT22;21084;51.098;14.506;2022-07-23T12:54:18;32.00;93.60